Fort Robinson, Nebraska
Current Conditions -  °F | °C
As of 7:53 AM on Monday 22 Dec 2014 (Local Time) from KCDR Reporting Station
Few Clouds Few Clouds  
Wind Chill: 23°   Ceiling: Unl
Heat Index: 34°   Visibility: 10mi
Dew Point: 27°   Wind: 18mph
Humidity: 75%   Direction: 290°WNW
Pressure: 29.65"   Gusts: 28mph
Location:  42.7426°N, 103.391°W
Report Text: KCDR 221453Z AUTO 29016G24KT 10SM FEW120 01/M03 A2965 RMK AO2 SLP063 T00111028 51005
Loading
Personal Weather Stations






























Interactive Weather Map New forecast layout! Learn more

10-Day Weather Forecast

Advertisements
Track Severe Weather on mobile